Αρχική σελίδα
METAR-TAF:

METAR-TAF

Αεροδρόμια :

Mar del Plata, Αργεντινή

γεωγραφικό πλάτος: 37-56S, γεωγραφικό μήκος: 057-35W, υψόμετρο: 18 μ

Παρών καιρός

Η αναφορά έγινε 1 ώρα και 6 λεπτά πριν, στις 03:00 UTC
Άνεμος 16 kt από
Θερμοκρασία 7°C
Υγρασία 87%
Πίεση 1022 hPa
Ορατότητα 10 χλμ και άνω
Δεν υπάρχουν νέφη με βάση κάτω από τα 1500 μ. και δεν υπάρχουν νέφη σωρειτομελανίτες.

METAR: SAZM 180300Z 31016KT CAVOK 07/05 Q1022

Χρόνος: 01:06 (04:06 UTC)

Πρόγνωση Καιρού

Η αναφορά έγινε 5 ώρες και 6 λεπτά πριν, στις 23:00 UTC
Η πρόγνωση ισχύει από τις 18 στις 00 UTC έως τις 18 στις 24 UTC
Άνεμος 15 kt από
Ορατότητα 10 χλμ και άνω
Δεν υπάρχουν νέφη με βάση κάτω από τα 1500 μ. και δεν υπάρχουν νέφη σωρειτομελανίτες.
Προσωρινά
από 18 στις 02 UTC έως τις 18 στις 08 UTC
Άνεμος 20 kt από με ριπές μέχρι 30 kt

TAF: SAZM 172300Z 1800/1824 32015KT CAVOK TX14/1818Z TN04/1810Z TEMPO 1802/1808 32020G30KT

Μετεωρολογικές αναφορές και προγνώσεις για περισσότερα από 4000 αεροδρόμια (δελτία METAR και TAF).

Οι διαθέσιμοι σταθμοί απεικονίζονται στο χάρτη με κίτρινες και κόκκινες κουκκίδες.

Μετακινήστε το ποντίκι πάνω από τις κουκκίδες για να δείτε το όνομα του σταθμού.

Στη συνέχεια, κάντε κλικ για να δείτε τις μετεωρολογικές αναφορές και τις προγνώσεις καιρού.

Για να αλλάξετε το χάρτη: κάντε κλικ στα πράσινα κουμπιά με τον μαύρο σταυρό για να ζουμάρετε, στο πράσινο κουμπί με την παύλα για να αφαιρέσετε το ζουμ ή στα πράσινα βέλη για να αντιπαραβάλλετε χάρτες.


METAR-TAF: